createdAt,value
2023-03-15T00:01:22.049Z,2.43
2023-03-15T00:03:49.211Z,2.36
2023-03-15T00:06:16.518Z,2.35
2023-03-15T00:08:48.148Z,2.37
2023-03-15T00:11:19.088Z,2.32
2023-03-15T00:13:51.731Z,2.30
2023-03-15T00:16:18.878Z,2.28
2023-03-15T00:18:47.452Z,2.30
2023-03-15T00:21:17.089Z,2.32
2023-03-15T00:23:43.805Z,2.25
2023-03-15T00:26:10.619Z,2.25
2023-03-15T00:28:40.899Z,2.24
2023-03-15T00:31:13.559Z,2.28
2023-03-15T00:33:41.761Z,2.24
2023-03-15T00:36:09.924Z,2.17
2023-03-15T00:38:38.009Z,2.18
2023-03-15T00:41:09.506Z,2.19
2023-03-15T00:43:36.329Z,2.12
2023-03-15T00:46:04.618Z,2.11
2023-03-15T00:48:32.910Z,2.20
2023-03-15T00:51:01.017Z,2.12
2023-03-15T00:53:27.659Z,2.07
2023-03-15T00:55:54.522Z,2.16
2023-03-15T00:58:23.457Z,2.03
2023-03-15T01:00:51.983Z,1.97
2023-03-15T01:03:18.789Z,1.91
2023-03-15T01:05:45.707Z,1.85
2023-03-15T01:08:12.580Z,1.81
2023-03-15T01:10:39.257Z,1.79
2023-03-15T01:13:07.334Z,1.76
2023-03-15T01:15:34.025Z,1.76
2023-03-15T01:18:00.873Z,1.77
2023-03-15T01:20:30.157Z,1.78
2023-03-15T01:22:56.850Z,1.80
2023-03-15T01:25:23.532Z,1.80
2023-03-15T01:27:50.230Z,1.79
2023-03-15T01:30:19.931Z,1.81
2023-03-15T01:32:46.616Z,1.73
2023-03-15T01:35:13.513Z,1.69
2023-03-15T01:37:40.357Z,1.67
2023-03-15T01:40:13.601Z,1.66
2023-03-15T01:45:58.034Z,1.63
2023-03-15T01:48:30.540Z,1.62
2023-03-15T01:50:58.684Z,1.60
2023-03-15T01:53:27.368Z,1.54
2023-03-15T01:55:55.005Z,1.47
2023-03-15T01:58:26.787Z,1.52
2023-03-15T02:00:53.717Z,1.45
2023-03-15T02:03:28.938Z,1.43
2023-03-15T02:06:01.040Z,1.27
2023-03-15T02:08:34.803Z,1.25
2023-03-15T02:11:04.343Z,1.12
2023-03-15T02:13:33.731Z,1.33
2023-03-15T02:16:01.133Z,1.15
2023-03-15T02:18:27.787Z,1.14
2023-03-15T02:20:57.784Z,1.16
2023-03-15T02:23:25.255Z,1.05
2023-03-15T02:26:01.064Z,1.01
2023-03-15T02:28:28.648Z,1.01
2023-03-15T02:30:55.490Z,1.12
2023-03-15T02:33:38.500Z,1.10
2023-03-15T02:36:22.863Z,1.08
2023-03-15T02:38:50.621Z,1.08
2023-03-15T02:41:29.916Z,0.96
2023-03-15T02:44:01.124Z,1.05
2023-03-15T02:46:28.516Z,1.01
2023-03-15T02:48:55.769Z,0.96
2023-03-15T02:51:28.285Z,0.95
2023-03-15T02:53:55.614Z,0.85
2023-03-15T02:56:22.531Z,0.80
2023-03-15T02:58:49.222Z,0.89
2023-03-15T03:01:18.195Z,0.98
2023-03-15T03:03:46.574Z,0.84
2023-03-15T03:06:14.741Z,0.95
2023-03-15T03:08:41.580Z,0.84
2023-03-15T03:11:08.287Z,0.75
2023-03-15T03:13:34.936Z,0.70
2023-03-15T03:16:01.642Z,0.73
2023-03-15T03:18:29.710Z,0.71
2023-03-15T03:20:57.690Z,0.82
2023-03-15T03:23:26.046Z,0.80
2023-03-15T03:25:54.211Z,0.68
2023-03-15T03:28:25.739Z,0.67
2023-03-15T03:30:54.673Z,0.55
2023-03-15T03:33:22.429Z,0.54
2023-03-15T03:35:50.393Z,0.48
2023-03-15T03:38:17.270Z,0.64
2023-03-15T03:40:45.627Z,0.71
2023-03-15T03:43:12.337Z,0.66
2023-03-15T03:45:39.035Z,0.71
2023-03-15T03:48:05.867Z,0.61
2023-03-15T03:50:33.301Z,0.56
2023-03-15T03:55:25.664Z,0.48
2023-03-15T03:57:55.246Z,0.43
2023-03-15T04:00:21.952Z,0.50
2023-03-15T04:02:48.908Z,0.41
2023-03-15T04:05:15.776Z,0.26
2023-03-15T04:07:42.432Z,0.50
2023-03-15T04:10:09.799Z,0.36
2023-03-15T04:12:36.441Z,0.31
2023-03-15T04:15:03.707Z,0.22
2023-03-15T04:17:30.652Z,0.16
2023-03-15T04:19:57.415Z,0.20
2023-03-15T04:22:24.159Z,0.06
2023-03-15T04:24:50.882Z,0.36
2023-03-15T04:27:17.807Z,0.42
2023-03-15T04:29:44.829Z,0.13
2023-03-15T04:32:11.848Z,0.19
2023-03-15T04:34:41.385Z,0.18
2023-03-15T04:37:09.349Z,0.13
2023-03-15T04:39:36.017Z,0.05
2023-03-15T04:42:03.369Z,0.23
2023-03-15T04:44:30.041Z,0.29
2023-03-15T04:46:56.858Z,0.15
2023-03-15T04:49:23.561Z,-0.03
2023-03-15T04:51:53.066Z,-0.01
2023-03-15T04:54:19.853Z,0.15
2023-03-15T04:56:46.635Z,0.24
2023-03-15T04:59:13.478Z,0.23
2023-03-15T05:01:40.214Z,0.17
2023-03-15T05:04:07.041Z,0.18
2023-03-15T05:06:33.845Z,0.29
2023-03-15T05:09:00.854Z,0.18
2023-03-15T05:11:27.741Z,0.21
2023-03-15T05:13:54.530Z,0.32
2023-03-15T05:16:21.582Z,0.17
2023-03-15T05:18:51.228Z,0.12
2023-03-15T05:21:17.976Z,0.17
2023-03-15T05:23:44.610Z,0.22
2023-03-15T05:26:11.335Z,0.16
2023-03-15T05:28:37.966Z,0.24
2023-03-15T05:31:04.742Z,0.39
2023-03-15T05:33:31.720Z,0.37
2023-03-15T05:38:27.132Z,0.30
2023-03-15T05:40:54.629Z,0.03
2023-03-15T05:43:22.290Z,0.05
2023-03-15T05:45:49.735Z,0.19
2023-03-15T05:48:16.999Z,0.10
2023-03-15T05:50:43.825Z,0.02
2023-03-15T05:53:10.742Z,0.18
2023-03-15T05:55:37.760Z,0.44
2023-03-15T05:58:04.832Z,0.59
2023-03-15T06:00:31.847Z,0.48
2023-03-15T06:02:58.754Z,0.40
2023-03-15T06:05:25.466Z,0.40
2023-03-15T06:07:53.094Z,0.72
2023-03-15T06:10:20.778Z,0.62
2023-03-15T06:12:47.542Z,0.60
2023-03-15T06:15:14.556Z,0.66
2023-03-15T06:17:41.217Z,0.79
2023-03-15T06:20:08.447Z,0.94
2023-03-15T06:22:35.340Z,1.08
2023-03-15T06:25:03.737Z,1.12
2023-03-15T06:27:31.135Z,1.22
2023-03-15T06:29:58.606Z,1.30
2023-03-15T06:32:25.801Z,1.42
2023-03-15T06:34:55.601Z,1.30
2023-03-15T06:37:34.296Z,1.49
2023-03-15T06:40:09.946Z,1.56
2023-03-15T06:42:37.663Z,1.33
2023-03-15T06:45:05.644Z,1.33
2023-03-15T06:47:33.034Z,1.36
2023-03-15T06:52:26.633Z,1.39
2023-03-15T06:54:53.565Z,1.53
2023-03-15T06:57:20.657Z,1.39
2023-03-15T06:59:47.504Z,1.40
2023-03-15T07:02:17.646Z,1.37
2023-03-15T07:04:46.010Z,1.47
2023-03-15T07:07:13.545Z,1.58
2023-03-15T07:09:41.153Z,1.58
2023-03-15T07:12:08.408Z,1.72
2023-03-15T07:14:35.242Z,1.76
2023-03-15T07:17:05.124Z,1.96
2023-03-15T07:19:31.786Z,2.43
2023-03-15T07:21:58.483Z,2.54
2023-03-15T07:24:25.243Z,2.42
2023-03-15T07:26:56.441Z,2.20
2023-03-15T07:29:26.220Z,2.35
2023-03-15T07:31:53.128Z,2.22
2023-03-15T07:34:19.799Z,2.46
2023-03-15T07:36:46.646Z,2.37
2023-03-15T07:39:13.832Z,2.47
2023-03-15T07:41:40.612Z,2.20
2023-03-15T07:44:07.638Z,2.31
2023-03-15T07:46:34.459Z,2.37
2023-03-15T07:49:01.108Z,2.35
2023-03-15T07:51:27.734Z,2.21
2023-03-15T07:53:54.472Z,2.02
2023-03-15T07:56:21.316Z,1.91
2023-03-15T07:58:48.315Z,1.71
2023-03-15T08:01:15.604Z,1.40
2023-03-15T08:03:42.215Z,1.33
2023-03-15T08:06:08.947Z,1.35
2023-03-15T08:08:35.617Z,1.38
2023-03-15T08:11:02.339Z,1.39
2023-03-15T08:13:29.055Z,1.25
2023-03-15T08:15:55.753Z,1.13
2023-03-15T08:18:22.426Z,0.95
2023-03-15T08:20:49.315Z,0.85
2023-03-15T08:23:16.780Z,0.68
2023-03-15T08:25:44.782Z,0.58
2023-03-15T08:28:12.052Z,0.62
2023-03-15T08:30:38.878Z,0.63
2023-03-15T08:33:05.892Z,0.64
2023-03-15T08:35:34.492Z,0.76
2023-03-15T08:38:02.954Z,0.88
2023-03-15T08:40:30.524Z,1.00
2023-03-15T08:42:58.017Z,0.94
2023-03-15T08:45:26.418Z,1.04
2023-03-15T08:50:27.978Z,0.96
2023-03-15T08:52:54.752Z,0.98
2023-03-15T08:55:21.461Z,1.21
2023-03-15T08:57:48.207Z,1.39
2023-03-15T09:00:21.112Z,1.81
2023-03-15T09:02:52.344Z,1.95
2023-03-15T09:05:21.292Z,1.97
2023-03-15T09:07:48.687Z,1.88
2023-03-15T09:10:17.444Z,1.69
2023-03-15T09:12:47.060Z,1.91
2023-03-15T09:15:13.922Z,2.32
2023-03-15T09:17:41.549Z,2.58
2023-03-15T09:20:19.214Z,2.87
2023-03-15T09:22:57.866Z,2.36
2023-03-15T09:25:25.837Z,2.20
2023-03-15T09:27:53.016Z,2.52
2023-03-15T09:30:20.146Z,2.29
2023-03-15T09:32:47.115Z,2.47
2023-03-15T09:35:16.323Z,2.19
2023-03-15T09:37:43.068Z,2.29
2023-03-15T09:40:15.719Z,2.49
2023-03-15T09:43:01.314Z,2.47
2023-03-15T09:46:01.343Z,2.72
2023-03-15T09:48:32.771Z,2.73
2023-03-15T09:51:00.412Z,2.80
2023-03-15T09:53:32.318Z,3.05
2023-03-15T09:58:32.830Z,2.94
2023-03-15T10:01:00.467Z,3.02
2023-03-15T10:03:46.883Z,2.80
2023-03-15T10:06:23.199Z,2.79
2023-03-15T10:08:55.353Z,2.68
2023-03-15T10:11:44.128Z,2.78
2023-03-15T10:14:47.341Z,2.93
2023-03-15T10:17:19.196Z,2.93
2023-03-15T10:19:56.198Z,3.51
2023-03-15T10:22:32.332Z,3.66
2023-03-15T10:27:37.553Z,4.10
2023-03-15T10:30:18.406Z,3.81
2023-03-15T10:32:50.077Z,3.88
2023-03-15T10:35:18.836Z,3.54
2023-03-15T10:37:46.125Z,3.32
2023-03-15T10:40:17.223Z,3.27
2023-03-15T10:42:45.992Z,3.45
2023-03-15T10:45:24.798Z,3.48
2023-03-15T10:48:00.284Z,3.22
2023-03-15T10:50:33.730Z,3.02
2023-03-15T10:53:00.359Z,2.90
2023-03-15T10:55:33.968Z,2.95
2023-03-15T10:58:21.142Z,2.84
2023-03-15T11:00:53.896Z,2.95
2023-03-15T11:03:23.554Z,3.15
2023-03-15T11:05:53.715Z,2.95
2023-03-15T11:08:24.174Z,2.88
2023-03-15T11:10:59.054Z,3.13
2023-03-15T11:13:28.411Z,3.12
2023-03-15T11:16:01.409Z,2.94
2023-03-15T11:18:35.799Z,3.25
2023-03-15T11:21:07.676Z,3.27
2023-03-15T11:23:40.616Z,3.39
2023-03-15T11:26:29.553Z,3.42
2023-03-15T11:29:02.037Z,3.75
2023-03-15T11:31:29.769Z,3.39
2023-03-15T11:34:01.572Z,3.32
2023-03-15T11:36:32.226Z,3.27
2023-03-15T11:39:02.836Z,3.27
2023-03-15T11:41:44.831Z,3.13
2023-03-15T11:44:29.206Z,3.18
2023-03-15T11:47:01.326Z,3.32
2023-03-15T11:49:42.242Z,3.54
2023-03-15T11:52:09.467Z,3.60
2023-03-15T11:54:36.820Z,3.53
2023-03-15T11:57:03.549Z,3.79
2023-03-15T11:59:32.901Z,3.86
2023-03-15T12:02:00.459Z,3.88
2023-03-15T12:04:33.022Z,3.83
2023-03-15T12:07:00.532Z,4.23
2023-03-15T12:09:33.137Z,4.19
2023-03-15T12:12:00.431Z,4.26
2023-03-15T12:14:32.421Z,4.08
2023-03-15T12:17:01.334Z,3.95
2023-03-15T12:19:28.383Z,4.12
2023-03-15T12:21:58.226Z,3.82
2023-03-15T12:24:36.655Z,3.84
2023-03-15T12:27:18.284Z,3.97
2023-03-15T12:29:47.328Z,3.66
2023-03-15T12:32:16.783Z,3.70
2023-03-15T12:35:01.443Z,3.75
2023-03-15T12:37:32.941Z,3.96
2023-03-15T12:40:01.477Z,3.74
2023-03-15T12:42:36.882Z,3.93
2023-03-15T12:45:40.665Z,4.06
2023-03-15T12:48:12.634Z,4.26
2023-03-15T12:50:45.947Z,4.34
2023-03-15T12:53:40.168Z,4.13
2023-03-15T12:56:19.056Z,5.52
2023-03-15T12:58:54.261Z,7.47
2023-03-15T13:01:25.909Z,7.32
2023-03-15T13:03:58.368Z,6.93
2023-03-15T13:06:37.239Z,5.95
2023-03-15T13:09:04.898Z,5.24
2023-03-15T13:11:49.625Z,4.83
2023-03-15T13:14:50.121Z,5.19
2023-03-15T13:17:43.101Z,5.02
2023-03-15T13:20:31.359Z,5.21
2023-03-15T13:23:01.417Z,5.47
2023-03-15T13:25:39.032Z,5.33
2023-03-15T13:28:22.557Z,7.38
2023-03-15T13:30:55.090Z,6.40
2023-03-15T13:33:31.771Z,6.41
2023-03-15T13:36:01.634Z,7.82
2023-03-15T13:38:44.310Z,9.02
2023-03-15T13:41:32.240Z,8.54
2023-03-15T13:44:01.682Z,8.47
2023-03-15T13:46:31.505Z,8.62
2023-03-15T13:49:01.459Z,7.43
2023-03-15T13:51:31.989Z,7.13
2023-03-15T13:54:02.731Z,7.87
2023-03-15T13:56:46.893Z,6.69
2023-03-15T13:59:14.789Z,7.93
2023-03-15T14:01:43.183Z,11.41
2023-03-15T14:04:18.173Z,11.97
2023-03-15T14:06:48.226Z,11.71
2023-03-15T14:09:21.841Z,12.99
2023-03-15T14:12:01.520Z,12.67
2023-03-15T14:14:34.174Z,11.71
2023-03-15T14:17:09.255Z,12.48
2023-03-15T14:19:36.984Z,13.30
2023-03-15T14:22:15.704Z,12.46
2023-03-15T14:24:44.760Z,11.18
2023-03-15T14:27:22.210Z,10.25
2023-03-15T14:29:51.819Z,9.19
2023-03-15T14:32:37.146Z,10.71
2023-03-15T14:35:20.068Z,11.91
2023-03-15T14:37:47.140Z,10.06
2023-03-15T14:40:17.351Z,9.74
2023-03-15T14:42:45.048Z,12.52
2023-03-15T14:45:12.349Z,11.27
2023-03-15T14:47:56.809Z,11.98
2023-03-15T14:50:27.417Z,11.86
2023-03-15T14:52:54.907Z,12.25
2023-03-15T14:55:25.110Z,12.19
2023-03-15T14:57:54.455Z,11.43
2023-03-15T15:00:21.469Z,11.53
2023-03-15T15:02:52.061Z,10.87
2023-03-15T15:05:31.187Z,11.85
2023-03-15T15:08:01.418Z,11.40
2023-03-15T15:10:28.310Z,10.58
2023-03-15T15:13:05.699Z,10.74
2023-03-15T15:15:25.860Z,11.71
2023-03-15T15:17:53.740Z,12.70
2023-03-15T15:20:22.992Z,10.66
2023-03-15T15:22:49.987Z,11.67
2023-03-15T15:25:22.806Z,9.77
2023-03-15T15:27:50.869Z,10.23
2023-03-15T15:30:26.860Z,10.85
2023-03-15T15:32:53.582Z,10.52
2023-03-15T15:35:20.904Z,11.04
2023-03-15T15:37:50.435Z,11.26
2023-03-15T15:40:23.478Z,11.43
2023-03-15T15:42:50.131Z,12.06
2023-03-15T15:45:18.490Z,13.72
2023-03-15T15:47:45.946Z,12.54
2023-03-15T15:50:17.988Z,11.52
2023-03-15T15:52:48.834Z,11.21
2023-03-15T15:55:22.146Z,10.72
2023-03-15T15:57:50.901Z,11.12
2023-03-15T16:00:24.706Z,10.50
2023-03-15T16:02:55.447Z,9.85
2023-03-15T16:05:25.171Z,9.01
2023-03-15T16:07:53.167Z,8.86
2023-03-15T16:10:26.011Z,7.52
2023-03-15T16:12:55.360Z,6.56
2023-03-15T16:15:22.211Z,6.06
2023-03-15T16:17:49.319Z,6.01
2023-03-15T16:20:17.247Z,6.26
2023-03-15T16:22:51.864Z,6.73
2023-03-15T16:25:25.771Z,7.61
2023-03-15T16:27:55.215Z,7.72
2023-03-15T16:30:28.085Z,6.94
2023-03-15T16:32:55.445Z,6.79
2023-03-15T16:35:42.293Z,6.81
2023-03-15T16:38:16.500Z,5.40
2023-03-15T16:40:45.780Z,6.05
2023-03-15T16:43:14.250Z,5.37
2023-03-15T16:45:41.765Z,4.84
2023-03-15T16:48:08.728Z,4.74
2023-03-15T16:50:39.223Z,5.07
2023-03-15T16:53:08.462Z,4.98
2023-03-15T16:55:35.477Z,4.77
2023-03-15T16:58:11.612Z,4.72
2023-03-15T17:00:38.793Z,4.47
2023-03-15T17:03:05.581Z,4.40
2023-03-15T17:05:33.163Z,4.48
2023-03-15T17:10:32.816Z,4.16
2023-03-15T17:13:00.536Z,4.07
2023-03-15T17:15:28.465Z,3.94
2023-03-15T17:17:58.041Z,3.85
2023-03-15T17:20:29.161Z,3.66
2023-03-15T17:25:25.848Z,3.47
2023-03-15T17:27:52.555Z,3.37
2023-03-15T17:30:28.361Z,3.31
2023-03-15T17:32:55.665Z,3.15
2023-03-15T17:35:27.737Z,3.07
2023-03-15T17:37:54.910Z,2.95
2023-03-15T17:40:30.886Z,3.03
2023-03-15T17:45:34.728Z,2.88
2023-03-15T17:48:02.330Z,2.97
2023-03-15T17:50:32.131Z,2.99
2023-03-15T17:53:01.694Z,2.78
2023-03-15T17:55:30.953Z,2.59
2023-03-15T17:57:57.627Z,2.43
2023-03-15T18:00:25.305Z,2.66
2023-03-15T18:02:55.845Z,2.45
2023-03-15T18:05:31.681Z,2.44
2023-03-15T18:07:59.769Z,2.34
2023-03-15T18:10:33.499Z,2.42
2023-03-15T18:15:26.155Z,2.26
2023-03-15T18:17:52.944Z,2.37
2023-03-15T18:20:24.144Z,2.42
2023-03-15T18:22:54.705Z,2.30
2023-03-15T18:25:26.936Z,2.27
2023-03-15T18:27:54.494Z,2.13
2023-03-15T18:30:23.584Z,1.85
2023-03-15T18:32:51.630Z,1.69
2023-03-15T18:35:21.281Z,1.56
2023-03-15T18:37:49.018Z,1.84
2023-03-15T18:40:21.353Z,1.90
2023-03-15T18:42:48.461Z,1.73
2023-03-15T18:45:19.386Z,1.74
2023-03-15T18:47:46.384Z,1.78
2023-03-15T18:50:15.630Z,1.81
2023-03-15T18:52:43.497Z,1.76
2023-03-15T18:55:16.505Z,1.76
2023-03-15T18:57:45.139Z,1.71
2023-03-15T19:00:17.148Z,1.50
2023-03-15T19:02:46.500Z,1.58
2023-03-15T19:05:14.308Z,1.63
2023-03-15T19:07:43.485Z,1.56
2023-03-15T19:10:16.302Z,1.55
2023-03-15T19:12:45.027Z,1.48
2023-03-15T19:15:17.707Z,1.38
2023-03-15T19:17:49.358Z,1.53
2023-03-15T19:20:19.117Z,1.20
2023-03-15T19:22:46.221Z,1.13
2023-03-15T19:25:14.183Z,1.08
2023-03-15T19:27:42.292Z,1.16
2023-03-15T19:30:14.518Z,1.10
2023-03-15T19:32:42.872Z,1.09
2023-03-15T19:35:12.673Z,0.97
2023-03-15T19:37:39.829Z,1.11
2023-03-15T19:40:10.231Z,0.84
2023-03-15T19:42:36.909Z,0.70
2023-03-15T19:45:05.285Z,0.98
2023-03-15T19:47:32.314Z,0.95
2023-03-15T19:49:58.992Z,0.82
2023-03-15T19:52:27.597Z,0.79
2023-03-15T19:54:54.435Z,0.82
2023-03-15T19:57:21.452Z,0.66
2023-03-15T19:59:51.179Z,0.40
2023-03-15T20:02:17.879Z,0.46
2023-03-15T20:04:44.630Z,0.33
2023-03-15T20:07:12.506Z,0.48
2023-03-15T20:09:41.618Z,0.51
2023-03-15T20:12:11.245Z,0.28
2023-03-15T20:14:42.040Z,0.71
2023-03-15T20:17:08.779Z,0.59
2023-03-15T20:19:36.353Z,0.40
2023-03-15T20:22:03.499Z,0.33
2023-03-15T20:24:30.397Z,0.29
2023-03-15T20:26:57.161Z,0.42
2023-03-15T20:29:23.835Z,0.47
2023-03-15T20:31:51.036Z,0.29
2023-03-15T20:34:17.823Z,0.25
2023-03-15T20:36:44.742Z,0.05
2023-03-15T20:39:11.444Z,0.24
2023-03-15T20:41:39.276Z,0.20
2023-03-15T20:44:06.143Z,0.12
2023-03-15T20:46:33.663Z,0.20
2023-03-15T20:51:26.003Z,0.08
2023-03-15T20:53:52.930Z,0.11
2023-03-15T20:56:21.695Z,0.05
2023-03-15T20:58:51.728Z,-0.06
2023-03-15T21:01:18.497Z,-0.26
2023-03-15T21:03:45.927Z,-0.24
2023-03-15T21:06:13.724Z,-0.09
2023-03-15T21:08:42.735Z,-0.31
2023-03-15T21:11:12.680Z,-0.36
2023-03-15T21:13:39.445Z,-0.40
2023-03-15T21:16:06.636Z,-0.28
2023-03-15T21:18:35.579Z,-0.17
2023-03-15T21:21:07.619Z,-0.16
2023-03-15T21:23:35.411Z,-0.25
2023-03-15T21:26:06.821Z,-0.44
2023-03-15T21:28:34.519Z,-0.41
2023-03-15T21:31:01.572Z,-0.47
2023-03-15T21:33:30.296Z,-0.39
2023-03-15T21:36:01.674Z,-0.19
2023-03-15T21:38:31.572Z,-0.30
2023-03-15T21:43:33.271Z,-0.31
2023-03-15T21:46:00.794Z,-0.47
2023-03-15T21:48:28.037Z,-0.31
2023-03-15T21:50:54.780Z,-0.20
2023-03-15T21:53:25.267Z,-0.38
2023-03-15T21:55:57.895Z,-0.58
2023-03-15T21:58:26.170Z,-0.63
2023-03-15T22:01:02.134Z,-0.66
2023-03-15T22:03:29.566Z,-0.62
2023-03-15T22:05:56.509Z,-0.47
2023-03-15T22:08:24.049Z,-0.60
2023-03-15T22:10:55.123Z,-0.31
2023-03-15T22:13:22.575Z,-0.30
2023-03-15T22:15:49.796Z,-0.41
2023-03-15T22:18:16.671Z,-0.53
2023-03-15T22:20:43.508Z,-0.63
2023-03-15T22:23:14.413Z,-0.83
2023-03-15T22:25:41.126Z,-0.75
2023-03-15T22:28:07.778Z,-0.95
2023-03-15T22:30:34.934Z,-0.71
2023-03-15T22:33:01.697Z,-0.93
2023-03-15T22:35:29.462Z,-0.95
2023-03-15T22:40:28.385Z,-0.90
2023-03-15T22:42:57.326Z,-0.93
2023-03-15T22:45:26.144Z,-0.84
2023-03-15T22:47:53.470Z,-0.86
2023-03-15T22:50:20.642Z,-0.84
2023-03-15T22:52:48.277Z,-0.96
2023-03-15T22:55:14.934Z,-0.81
2023-03-15T22:57:41.826Z,-0.93
2023-03-15T23:00:14.098Z,-1.04
2023-03-15T23:02:42.561Z,-1.07
2023-03-15T23:05:10.055Z,-0.99
2023-03-15T23:07:36.941Z,-1.22
2023-03-15T23:10:06.292Z,-1.14
2023-03-15T23:12:36.501Z,-1.10
2023-03-15T23:15:04.842Z,-1.23
2023-03-15T23:17:31.910Z,-1.33
2023-03-15T23:19:58.816Z,-1.38
2023-03-15T23:22:26.260Z,-1.46
2023-03-15T23:24:53.038Z,-1.18
2023-03-15T23:27:19.715Z,-1.05
2023-03-15T23:29:54.637Z,-1.03
2023-03-15T23:32:23.149Z,-1.17
2023-03-15T23:34:50.056Z,-1.32
2023-03-15T23:37:20.103Z,-1.26
2023-03-15T23:39:46.896Z,-1.05
2023-03-15T23:42:14.040Z,-1.06
2023-03-15T23:44:40.785Z,-1.17
2023-03-15T23:47:07.953Z,-1.21
2023-03-15T23:49:34.709Z,-1.07
2023-03-15T23:52:06.111Z,-1.13
2023-03-15T23:54:39.805Z,-1.24
2023-03-15T23:57:08.526Z,-1.06
2023-03-15T23:59:36.431Z,-1.12
